Terminal Aerodrome Forecast
Issued by NWS Springfield, MO

Home | Current Version | Previous Version | Text Only | Print | Product List | Glossary On
Versions: 1 2 3 4 5 6 7 8 9 10 11 12 13 14 15
354
FTUS43 KSGF 291720
TAFSGF
TAF
KSGF 291720Z 2918/3018 25006KT P6SM BKN100
      TEMPO 2918/2919 P6SM -TSRA BKN050CB
     FM292100 29004KT P6SM BKN250
     FM300800 VRB03KT P6SM OVC120 PROB30 3010/3012 5SM -TSRA
      OVC040CB=

USA.gov is the U.S. government's official web portal to all federal, state and local government web resources and services.